createdAt,value
2019-03-23T00:02:17.504Z,95.53
2019-03-23T00:04:47.847Z,99.87
2019-03-23T00:07:18.064Z,103.13
2019-03-23T00:09:48.253Z,103.50
2019-03-23T00:12:18.689Z,103.20
2019-03-23T00:14:48.893Z,123.37
2019-03-23T00:17:19.080Z,119.53
2019-03-23T00:19:49.285Z,123.63
2019-03-23T00:22:19.553Z,121.40
2019-03-23T00:24:49.755Z,116.10
2019-03-23T00:27:19.965Z,116.00
2019-03-23T00:29:50.330Z,118.57
2019-03-23T00:32:20.523Z,118.25
2019-03-23T00:34:50.744Z,119.40
2019-03-23T00:37:20.940Z,120.30
2019-03-23T00:39:51.190Z,125.43
2019-03-23T00:42:21.689Z,131.07
2019-03-23T00:44:51.909Z,123.50
2019-03-23T00:47:22.386Z,135.23
2019-03-23T00:49:52.683Z,142.37
2019-03-23T00:52:22.886Z,140.53
2019-03-23T00:54:53.265Z,138.00
2019-03-23T00:57:23.532Z,132.67
2019-03-23T00:59:55.105Z,125.10
2019-03-23T01:02:27.351Z,144.80
2019-03-23T01:04:57.713Z,148.20
2019-03-23T01:07:28.025Z,143.57
2019-03-23T01:09:58.212Z,142.00
2019-03-23T01:12:28.589Z,137.43
2019-03-23T01:14:59.216Z,133.43
2019-03-23T01:17:29.410Z,142.67
2019-03-23T01:19:59.651Z,138.60
2019-03-23T01:22:29.864Z,143.07
2019-03-23T01:25:00.355Z,145.57
2019-03-23T01:27:30.555Z,131.93
2019-03-23T01:30:02.036Z,137.50
2019-03-23T01:32:32.498Z,134.70
2019-03-23T01:35:02.703Z,129.90
2019-03-23T01:37:33.211Z,144.93
2019-03-23T01:40:04.073Z,150.30
2019-03-23T01:42:34.277Z,122.97
2019-03-23T01:45:06.927Z,140.17
2019-03-23T01:47:37.187Z,139.62
2019-03-23T01:50:08.104Z,142.10
2019-03-23T01:52:38.817Z,127.60
2019-03-23T01:55:09.563Z,125.97
2019-03-23T01:57:40.309Z,128.90
2019-03-23T02:00:11.787Z,130.70
2019-03-23T02:02:43.410Z,121.10
2019-03-23T02:05:14.005Z,124.77
2019-03-23T02:07:44.189Z,118.20
2019-03-23T02:10:14.670Z,127.83
2019-03-23T02:12:44.885Z,122.73
2019-03-23T02:15:15.769Z,127.97
2019-03-23T02:17:45.987Z,126.30
2019-03-23T02:20:16.358Z,125.20
2019-03-23T02:22:46.565Z,126.45
2019-03-23T02:25:17.040Z,117.70
2019-03-23T02:27:47.242Z,124.37
2019-03-23T02:30:17.733Z,125.60
2019-03-23T02:32:47.930Z,116.37
2019-03-23T02:35:18.143Z,119.77
2019-03-23T02:37:48.358Z,125.07
2019-03-23T02:40:18.650Z,115.63
2019-03-23T02:42:49.132Z,126.77
2019-03-23T02:45:19.690Z,124.72
2019-03-23T02:47:49.975Z,113.60
2019-03-23T02:50:20.198Z,110.92
2019-03-23T02:52:52.683Z,122.83
2019-03-23T02:55:23.078Z,118.67
2019-03-23T02:57:53.303Z,114.05
2019-03-23T03:00:23.506Z,118.83
2019-03-23T03:02:53.735Z,117.37
2019-03-23T03:05:23.962Z,119.10
2019-03-23T03:07:54.338Z,116.17
2019-03-23T03:10:50.323Z,110.00
2019-03-23T03:13:20.771Z,118.77
2019-03-23T03:15:51.533Z,106.60
2019-03-23T03:18:22.031Z,113.07
2019-03-23T03:20:52.254Z,102.33
2019-03-23T03:23:22.528Z,103.27
2019-03-23T03:25:52.979Z,103.03
2019-03-23T03:28:23.197Z,96.87
2019-03-23T03:30:53.429Z,108.43
2019-03-23T03:33:23.898Z,109.87
2019-03-23T03:35:54.462Z,107.20
2019-03-23T03:38:24.686Z,113.07
2019-03-23T03:40:54.893Z,104.33
2019-03-23T03:43:25.195Z,99.77
2019-03-23T03:45:55.674Z,106.70
2019-03-23T03:48:25.879Z,97.60
2019-03-23T03:50:56.156Z,104.60
2019-03-23T03:53:27.001Z,101.53
2019-03-23T03:55:57.280Z,109.87
2019-03-23T03:58:27.629Z,107.00
2019-03-23T04:00:57.843Z,105.97
2019-03-23T04:03:28.055Z,98.53
2019-03-23T04:05:58.440Z,113.23
2019-03-23T04:08:28.918Z,113.87
2019-03-23T04:10:59.186Z,103.23
2019-03-23T04:13:29.390Z,104.33
2019-03-23T04:15:59.613Z,107.67
2019-03-23T04:18:30.794Z,103.37
2019-03-23T04:21:02.262Z,115.07
2019-03-23T04:23:32.467Z,112.90
2019-03-23T04:26:02.736Z,111.80
2019-03-23T04:28:32.958Z,112.80
2019-03-23T04:31:03.377Z,118.53
2019-03-23T04:33:33.997Z,112.97
2019-03-23T04:36:04.519Z,104.13
2019-03-23T04:38:34.713Z,107.50
2019-03-23T04:41:05.729Z,107.95
2019-03-23T04:43:36.006Z,119.03
2019-03-23T04:46:06.711Z,113.90
2019-03-23T04:48:36.980Z,103.03
2019-03-23T04:51:07.203Z,119.43
2019-03-23T04:53:37.817Z,109.03
2019-03-23T04:56:08.029Z,114.23
2019-03-23T04:58:38.312Z,110.90
2019-03-23T05:01:08.509Z,116.37
2019-03-23T05:03:38.742Z,117.87
2019-03-23T05:06:09.229Z,125.10
2019-03-23T05:08:39.593Z,120.40
2019-03-23T05:11:09.788Z,117.90
2019-03-23T05:13:40.250Z,110.20
2019-03-23T05:16:10.440Z,110.83
2019-03-23T05:18:41.045Z,109.80
2019-03-23T05:21:11.233Z,117.50
2019-03-23T05:23:41.477Z,118.60
2019-03-23T05:26:11.653Z,129.30
2019-03-23T05:28:41.879Z,126.93
2019-03-23T05:31:12.242Z,112.70
2019-03-23T05:33:42.456Z,127.07
2019-03-23T05:36:12.647Z,120.25
2019-03-23T05:38:44.621Z,116.60
2019-03-23T05:41:14.849Z,115.92
2019-03-23T05:43:45.304Z,113.87
2019-03-23T05:46:15.521Z,112.70
2019-03-23T05:48:46.043Z,111.90
2019-03-23T05:51:16.981Z,108.03
2019-03-23T05:53:47.459Z,103.77
2019-03-23T05:56:17.683Z,97.22
2019-03-23T05:58:48.157Z,102.90
2019-03-23T06:01:18.693Z,100.53
2019-03-23T06:03:49.130Z,105.70
2019-03-23T06:06:19.514Z,95.40
2019-03-23T06:08:54.821Z,92.13
2019-03-23T06:11:21.618Z,110.57
2019-03-23T06:13:52.005Z,109.30
2019-03-23T06:16:22.400Z,96.27
2019-03-23T06:18:52.603Z,106.90
2019-03-23T06:21:23.017Z,96.37
2019-03-23T06:23:53.476Z,91.10
2019-03-23T06:26:23.678Z,96.83
2019-03-23T06:28:53.879Z,94.20
2019-03-23T06:31:24.119Z,98.90
2019-03-23T06:33:54.300Z,104.07
2019-03-23T06:36:24.594Z,105.70
2019-03-23T06:39:04.851Z,101.83
2019-03-23T06:41:26.732Z,99.37
2019-03-23T06:43:56.969Z,100.47
2019-03-23T06:46:27.170Z,93.77
2019-03-23T06:48:57.570Z,100.40
2019-03-23T06:51:27.936Z,95.63
2019-03-23T06:53:58.154Z,95.47
2019-03-23T06:56:28.514Z,91.57
2019-03-23T06:58:59.066Z,96.43
2019-03-23T07:01:29.430Z,89.73
2019-03-23T07:03:59.668Z,89.17
2019-03-23T07:06:29.909Z,87.90
2019-03-23T07:09:00.128Z,84.23
2019-03-23T07:11:30.565Z,87.50
2019-03-23T07:14:01.039Z,82.93
2019-03-23T07:16:31.494Z,84.93
2019-03-23T07:19:01.723Z,81.17
2019-03-23T07:21:32.215Z,90.17
2019-03-23T07:24:02.403Z,88.53
2019-03-23T07:26:32.793Z,86.07
2019-03-23T07:29:03.015Z,82.87
2019-03-23T07:31:33.226Z,81.40
2019-03-23T07:34:06.177Z,77.93
2019-03-23T07:36:36.665Z,83.93
2019-03-23T07:39:08.345Z,84.60
2019-03-23T07:41:39.061Z,75.63
2019-03-23T07:44:09.281Z,82.57
2019-03-23T07:46:39.500Z,78.40
2019-03-23T07:49:09.777Z,74.37
2019-03-23T07:51:40.288Z,78.97
2019-03-23T07:54:10.836Z,79.65
2019-03-23T07:56:41.028Z,78.77
2019-03-23T07:59:11.404Z,75.00
2019-03-23T08:01:41.607Z,76.53
2019-03-23T08:04:11.896Z,69.40
2019-03-23T08:06:42.702Z,74.20
2019-03-23T08:09:20.327Z,70.23
2019-03-23T08:11:45.443Z,77.50
2019-03-23T08:14:16.905Z,73.77
2019-03-23T08:16:47.325Z,76.53
2019-03-23T08:19:17.898Z,73.07
2019-03-23T08:21:48.112Z,75.20
2019-03-23T08:24:18.342Z,75.33
2019-03-23T08:26:49.706Z,68.77
2019-03-23T08:29:20.171Z,77.03
2019-03-23T08:31:50.364Z,73.03
2019-03-23T08:34:20.577Z,72.57
2019-03-23T08:36:50.802Z,77.13
2019-03-23T08:39:21.248Z,69.50
2019-03-23T08:41:51.480Z,74.40
2019-03-23T08:44:21.678Z,75.17
2019-03-23T08:46:52.052Z,71.93
2019-03-23T08:49:22.546Z,73.35
2019-03-23T08:51:52.832Z,72.40
2019-03-23T08:54:23.047Z,74.07
2019-03-23T08:56:53.443Z,70.27
2019-03-23T08:59:23.659Z,65.97
2019-03-23T09:01:53.870Z,76.00
2019-03-23T09:04:24.093Z,71.20
2019-03-23T09:06:54.284Z,74.57
2019-03-23T09:09:24.504Z,65.93
2019-03-23T09:11:54.978Z,74.57
2019-03-23T09:14:25.193Z,70.20
2019-03-23T09:19:45.689Z,65.97
2019-03-23T09:22:15.897Z,66.17
2019-03-23T09:24:46.133Z,64.23
2019-03-23T09:27:16.544Z,63.08
2019-03-23T09:29:46.973Z,65.30
2019-03-23T09:32:17.180Z,66.60
2019-03-23T09:34:47.388Z,62.37
2019-03-23T09:37:17.588Z,66.10
2019-03-23T09:39:47.921Z,62.10
2019-03-23T09:42:18.095Z,67.17
2019-03-23T09:44:48.680Z,71.33
2019-03-23T09:47:19.069Z,65.83
2019-03-23T09:49:49.279Z,57.63
2019-03-23T09:52:19.491Z,58.67
2019-03-23T09:54:49.703Z,60.77
2019-03-23T09:57:19.916Z,60.85
2019-03-23T09:59:50.138Z,60.20
2019-03-23T10:02:20.397Z,66.75
2019-03-23T10:04:50.858Z,63.70
2019-03-23T10:07:21.083Z,61.58
2019-03-23T10:09:51.340Z,65.77
2019-03-23T10:12:21.565Z,60.63
2019-03-23T10:14:51.770Z,66.17
2019-03-23T10:17:22.401Z,64.83
2019-03-23T10:19:52.596Z,65.70
2019-03-23T10:22:23.786Z,56.10
2019-03-23T10:24:54.063Z,54.33
2019-03-23T10:27:24.261Z,61.90
2019-03-23T10:29:55.029Z,62.23
2019-03-23T10:32:25.343Z,57.20
2019-03-23T10:34:55.535Z,61.00
2019-03-23T10:37:26.158Z,61.83
2019-03-23T10:39:56.330Z,60.70
2019-03-23T10:42:26.765Z,62.27
2019-03-23T10:44:56.996Z,59.83
2019-03-23T10:47:27.571Z,60.73
2019-03-23T10:49:57.785Z,63.03
2019-03-23T10:52:27.960Z,58.20
2019-03-23T10:54:58.174Z,56.90
2019-03-23T10:57:28.364Z,60.97
2019-03-23T10:59:58.602Z,55.40
2019-03-23T11:02:28.817Z,57.97
2019-03-23T11:04:59.016Z,62.60
2019-03-23T11:07:29.206Z,61.23
2019-03-23T11:10:00.460Z,64.27
2019-03-23T11:12:30.657Z,62.70
2019-03-23T11:15:00.862Z,62.63
2019-03-23T11:17:31.063Z,63.93
2019-03-23T11:20:01.282Z,56.83
2019-03-23T11:22:31.485Z,62.97
2019-03-23T11:25:01.695Z,60.67
2019-03-23T11:27:31.896Z,61.17
2019-03-23T11:30:02.102Z,61.57
2019-03-23T11:32:32.599Z,65.73
2019-03-23T11:35:02.828Z,58.70
2019-03-23T11:37:33.147Z,66.57
2019-03-23T11:40:03.450Z,65.83
2019-03-23T11:42:33.655Z,60.57
2019-03-23T11:45:03.983Z,62.30
2019-03-23T11:47:34.180Z,66.67
2019-03-23T11:50:04.917Z,68.80
2019-03-23T11:52:35.131Z,64.20
2019-03-23T11:55:06.351Z,59.80
2019-03-23T11:57:37.526Z,60.53
2019-03-23T12:00:09.346Z,54.50
2019-03-23T12:02:39.805Z,56.37
2019-03-23T12:05:10.284Z,64.07
2019-03-23T12:07:40.489Z,64.10
2019-03-23T12:10:12.747Z,64.10
2019-03-23T12:12:43.364Z,68.90
2019-03-23T12:15:14.365Z,70.52
2019-03-23T12:17:44.560Z,58.20
2019-03-23T12:20:14.956Z,62.00
2019-03-23T12:22:45.160Z,58.37
2019-03-23T12:25:15.365Z,62.53
2019-03-23T12:27:45.731Z,59.00
2019-03-23T12:30:16.685Z,55.12
2019-03-23T12:32:46.904Z,62.33
2019-03-23T12:35:17.132Z,56.48
2019-03-23T12:37:47.331Z,57.97
2019-03-23T12:40:18.226Z,53.30
2019-03-23T12:42:48.447Z,56.23
2019-03-23T12:45:18.791Z,54.53
2019-03-23T12:47:48.994Z,52.53
2019-03-23T12:50:19.214Z,55.50
2019-03-23T12:52:49.425Z,58.53
2019-03-23T12:55:19.636Z,54.33
2019-03-23T12:57:49.847Z,53.50
2019-03-23T13:00:20.357Z,51.90
2019-03-23T13:02:51.037Z,51.53
2019-03-23T13:05:21.253Z,53.83
2019-03-23T13:07:52.343Z,56.90
2019-03-23T13:10:22.552Z,57.97
2019-03-23T13:12:52.782Z,58.87
2019-03-23T13:15:45.674Z,55.13
2019-03-23T13:18:15.889Z,58.02
2019-03-23T13:20:46.102Z,62.13
2019-03-23T13:23:16.299Z,53.80
2019-03-23T13:25:46.773Z,52.00
2019-03-23T13:28:16.969Z,53.93
2019-03-23T13:30:47.409Z,56.17
2019-03-23T13:33:17.618Z,63.80
2019-03-23T13:35:47.825Z,54.63
2019-03-23T13:38:18.060Z,61.90
2019-03-23T13:40:59.855Z,54.70
2019-03-23T13:43:36.067Z,57.00
2019-03-23T13:46:06.336Z,55.67
2019-03-23T13:48:36.548Z,56.43
2019-03-23T13:51:06.743Z,55.67
2019-03-23T13:53:37.779Z,55.10
2019-03-23T13:56:08.009Z,59.00
2019-03-23T13:58:38.222Z,59.87
2019-03-23T14:01:08.881Z,60.83
2019-03-23T14:03:39.337Z,58.30
2019-03-23T14:06:09.866Z,60.63
2019-03-23T14:11:28.333Z,54.50
2019-03-23T14:13:58.564Z,62.13
2019-03-23T14:16:29.029Z,54.17
2019-03-23T14:18:59.228Z,55.28
2019-03-23T14:21:29.417Z,54.97
2019-03-23T14:23:59.624Z,55.90
2019-03-23T14:26:30.019Z,57.10
2019-03-23T14:29:00.224Z,62.23
2019-03-23T14:31:30.666Z,56.63
2019-03-23T14:34:01.163Z,60.07
2019-03-23T14:36:31.365Z,60.63
2019-03-23T14:39:01.571Z,58.47
2019-03-23T14:41:32.341Z,52.37
2019-03-23T14:44:02.612Z,51.87
2019-03-23T14:46:32.830Z,47.40
2019-03-23T14:49:03.034Z,48.97
2019-03-23T14:51:33.246Z,50.47
2019-03-23T14:54:03.441Z,42.55
2019-03-23T14:56:33.802Z,45.27
2019-03-23T14:59:04.085Z,44.03
2019-03-23T15:01:34.534Z,37.37
2019-03-23T15:04:05.440Z,39.27
2019-03-23T15:06:35.664Z,42.70
2019-03-23T15:09:07.280Z,38.73
2019-03-23T15:11:37.488Z,41.07
2019-03-23T15:14:15.319Z,39.13
2019-03-23T15:16:45.534Z,37.07
2019-03-23T15:19:15.992Z,39.23
2019-03-23T15:21:46.221Z,40.50
2019-03-23T15:24:16.427Z,36.63
2019-03-23T15:26:46.628Z,40.27
2019-03-23T15:29:16.843Z,37.30
2019-03-23T15:31:47.068Z,36.23
2019-03-23T15:34:17.257Z,32.60
2019-03-23T15:36:47.460Z,32.20
2019-03-23T15:39:17.662Z,34.07
2019-03-23T15:41:49.337Z,30.80
2019-03-23T15:44:19.536Z,30.50
2019-03-23T15:46:49.750Z,29.47
2019-03-23T15:49:19.941Z,31.77
2019-03-23T15:51:50.154Z,32.43
2019-03-23T15:54:20.377Z,28.97
2019-03-23T15:56:50.579Z,28.40
2019-03-23T15:59:20.786Z,27.40
2019-03-23T16:01:50.984Z,23.07
2019-03-23T16:04:21.342Z,22.07
2019-03-23T16:06:51.532Z,22.67
2019-03-23T16:09:21.813Z,21.40
2019-03-23T16:11:52.535Z,20.67
2019-03-23T16:14:22.987Z,21.67
2019-03-23T16:16:53.195Z,27.47
2019-03-23T16:19:23.668Z,19.30
2019-03-23T16:21:53.872Z,16.07
2019-03-23T16:24:24.062Z,16.77
2019-03-23T16:26:54.272Z,15.13
2019-03-23T16:29:24.472Z,17.27
2019-03-23T16:32:00.361Z,13.90
2019-03-23T16:34:36.211Z,14.07
2019-03-23T16:37:06.854Z,10.63
2019-03-23T16:39:37.073Z,12.23
2019-03-23T16:42:07.279Z,13.73
2019-03-23T16:44:37.720Z,11.53
2019-03-23T16:47:07.923Z,13.70
2019-03-23T16:49:38.126Z,11.90
2019-03-23T16:52:08.400Z,14.10
2019-03-23T16:54:38.595Z,10.60
2019-03-23T16:57:08.798Z,10.10
2019-03-23T16:59:38.980Z,10.80
2019-03-23T17:02:09.177Z,12.67
2019-03-23T17:04:39.362Z,10.00
2019-03-23T17:07:09.564Z,13.67
2019-03-23T17:09:40.003Z,13.50
2019-03-23T17:12:10.189Z,12.63
2019-03-23T17:14:40.371Z,10.50
2019-03-23T17:17:10.564Z,15.13
2019-03-23T17:19:40.751Z,10.03
2019-03-23T17:22:10.962Z,10.30
2019-03-23T17:24:41.141Z,9.50
2019-03-23T17:27:11.484Z,13.32
2019-03-23T17:29:41.674Z,13.37
2019-03-23T17:32:11.879Z,16.90
2019-03-23T17:34:42.137Z,12.10
2019-03-23T17:37:12.330Z,11.73
2019-03-23T17:39:42.812Z,14.78
2019-03-23T17:42:13.012Z,11.97
2019-03-23T17:44:43.289Z,10.70
2019-03-23T17:47:13.584Z,13.18
2019-03-23T17:49:45.340Z,12.00
2019-03-23T17:52:15.621Z,11.28
2019-03-23T17:54:45.821Z,11.63
2019-03-23T17:57:16.097Z,11.00
2019-03-23T17:59:47.521Z,12.55
2019-03-23T18:02:17.735Z,11.20
2019-03-23T18:04:47.930Z,13.13
2019-03-23T18:07:18.120Z,10.67
2019-03-23T18:09:48.315Z,11.37
2019-03-23T18:12:18.591Z,9.67
2019-03-23T18:14:48.798Z,15.10
2019-03-23T18:17:18.998Z,10.70
2019-03-23T18:19:49.179Z,11.67
2019-03-23T18:22:19.367Z,11.43
2019-03-23T18:24:49.580Z,11.90
2019-03-23T18:27:19.756Z,13.63
2019-03-23T18:29:49.969Z,11.73
2019-03-23T18:32:20.244Z,14.70
2019-03-23T18:34:50.606Z,16.73
2019-03-23T18:37:20.807Z,17.87
2019-03-23T18:39:51.021Z,16.30
2019-03-23T18:42:21.220Z,15.97
2019-03-23T18:44:51.448Z,16.13
2019-03-23T18:47:21.787Z,17.80
2019-03-23T18:49:52.066Z,16.83
2019-03-23T18:52:22.257Z,12.83
2019-03-23T18:54:52.544Z,15.73
2019-03-23T18:57:22.738Z,19.23
2019-03-23T18:59:53.200Z,19.90
2019-03-23T19:02:23.514Z,21.37
2019-03-23T19:04:53.801Z,19.40
2019-03-23T19:07:23.954Z,24.23
2019-03-23T19:09:54.166Z,26.70
2019-03-23T19:12:24.359Z,22.13
2019-03-23T19:14:54.559Z,27.17
2019-03-23T19:17:24.756Z,31.53
2019-03-23T19:19:54.962Z,20.83
2019-03-23T19:22:25.973Z,23.47
2019-03-23T19:24:56.180Z,21.70
2019-03-23T19:27:26.382Z,20.17
2019-03-23T19:29:56.584Z,21.67
2019-03-23T19:32:26.786Z,24.63
2019-03-23T19:34:57.299Z,18.87
2019-03-23T19:37:27.494Z,20.67
2019-03-23T19:39:57.676Z,22.23
2019-03-23T19:42:27.882Z,24.70
2019-03-23T19:44:58.309Z,22.47
2019-03-23T19:47:28.603Z,16.60
2019-03-23T19:49:58.814Z,20.03
2019-03-23T19:52:29.010Z,14.80
2019-03-23T19:54:59.461Z,17.47
2019-03-23T19:57:29.642Z,15.63
2019-03-23T19:59:59.833Z,14.07
2019-03-23T20:02:30.014Z,14.17
2019-03-23T20:05:00.382Z,14.10
2019-03-23T20:07:33.249Z,18.30
2019-03-23T20:10:02.968Z,14.80
2019-03-23T20:12:33.146Z,15.60
2019-03-23T20:15:03.434Z,13.23
2019-03-23T20:17:33.703Z,13.50
2019-03-23T20:20:04.703Z,14.33
2019-03-23T20:22:35.064Z,13.00
2019-03-23T20:25:06.762Z,15.67
2019-03-23T20:27:37.917Z,17.40
2019-03-23T20:30:09.682Z,15.07
2019-03-23T20:32:39.867Z,9.67
2019-03-23T20:35:10.832Z,15.17
2019-03-23T20:37:41.020Z,13.00
2019-03-23T20:40:13.374Z,16.40
2019-03-23T20:42:44.379Z,12.70
2019-03-23T20:45:19.046Z,17.60
2019-03-23T20:47:49.755Z,15.47
2019-03-23T20:50:19.977Z,17.17
2019-03-23T20:52:50.592Z,16.87
2019-03-23T20:55:28.400Z,12.75
2019-03-23T20:57:59.157Z,17.57
2019-03-23T21:00:29.346Z,13.77
2019-03-23T21:02:59.739Z,17.27
2019-03-23T21:05:34.124Z,14.50
2019-03-23T21:08:01.991Z,12.90
2019-03-23T21:10:32.294Z,12.77
2019-03-23T21:13:02.790Z,15.63
2019-03-23T21:15:33.000Z,13.13
2019-03-23T21:18:03.385Z,15.07
2019-03-23T21:20:33.581Z,12.80
2019-03-23T21:23:03.954Z,15.13
2019-03-23T21:25:34.329Z,14.47
2019-03-23T21:28:04.774Z,12.60
2019-03-23T21:30:34.968Z,13.50
2019-03-23T21:33:05.389Z,19.97
2019-03-23T21:35:35.584Z,12.07
2019-03-23T21:38:06.089Z,12.90
2019-03-23T21:40:36.670Z,13.70
2019-03-23T21:43:06.875Z,15.27
2019-03-23T21:45:37.063Z,13.67
2019-03-23T21:48:07.823Z,17.57
2019-03-23T21:50:47.033Z,16.17
2019-03-23T21:53:11.023Z,13.93
2019-03-23T21:55:41.204Z,18.83
2019-03-23T21:58:11.395Z,15.72
2019-03-23T22:00:41.598Z,16.23
2019-03-23T22:03:11.782Z,12.20
2019-03-23T22:05:42.163Z,13.83
2019-03-23T22:08:12.417Z,13.98
2019-03-23T22:10:42.620Z,14.67
2019-03-23T22:13:12.816Z,15.70
2019-03-23T22:15:43.387Z,11.97
2019-03-23T22:18:13.574Z,10.67
2019-03-23T22:20:43.764Z,12.47
2019-03-23T22:23:13.966Z,10.38
2019-03-23T22:25:44.147Z,14.90
2019-03-23T22:28:14.375Z,19.07
2019-03-23T22:30:44.550Z,12.60
2019-03-23T22:33:14.998Z,15.85
2019-03-23T22:35:45.178Z,17.27
2019-03-23T22:38:15.683Z,14.85
2019-03-23T22:40:46.199Z,14.77
2019-03-23T22:43:16.751Z,17.63
2019-03-23T22:45:46.943Z,12.63
2019-03-23T22:48:17.435Z,13.80
2019-03-23T22:50:47.606Z,12.23
2019-03-23T22:53:17.802Z,13.50
2019-03-23T22:55:48.128Z,14.27
2019-03-23T22:58:18.339Z,16.17
2019-03-23T23:00:50.027Z,14.03
2019-03-23T23:03:21.578Z,12.75
2019-03-23T23:05:51.845Z,16.13
2019-03-23T23:08:22.348Z,14.23
2019-03-23T23:10:52.654Z,13.30
2019-03-23T23:13:22.846Z,11.65
2019-03-23T23:15:53.289Z,12.50
2019-03-23T23:18:23.499Z,11.60
2019-03-23T23:20:53.672Z,14.10
2019-03-23T23:23:24.155Z,15.50
2019-03-23T23:25:54.338Z,13.87
2019-03-23T23:28:24.711Z,14.00
2019-03-23T23:30:54.922Z,13.83
2019-03-23T23:33:25.757Z,13.95
2019-03-23T23:35:55.954Z,13.63
2019-03-23T23:38:26.321Z,12.93
2019-03-23T23:40:56.645Z,16.77
2019-03-23T23:43:26.962Z,11.73
2019-03-23T23:45:57.232Z,12.63
2019-03-23T23:48:27.421Z,13.53
2019-03-23T23:50:57.612Z,9.93
2019-03-23T23:53:28.078Z,14.10
2019-03-23T23:55:58.283Z,17.30
2019-03-23T23:58:28.456Z,16.77
